createdAt,value
2023-01-06T00:01:42.525Z,3.49
2023-01-06T00:04:16.817Z,3.49
2023-01-06T00:07:18.166Z,3.47
2023-01-06T00:10:05.430Z,3.44
2023-01-06T00:12:49.289Z,3.45
2023-01-06T00:15:31.838Z,3.46
2023-01-06T00:18:29.509Z,3.45
2023-01-06T00:22:17.962Z,3.35
2023-01-06T00:25:26.550Z,3.36
2023-01-06T00:28:37.187Z,3.28
2023-01-06T00:32:10.043Z,3.23
2023-01-06T00:35:01.171Z,3.28
2023-01-06T00:40:27.909Z,3.23
2023-01-06T00:43:10.585Z,3.24
2023-01-06T00:46:01.052Z,3.28
2023-01-06T00:49:00.082Z,3.29
2023-01-06T00:51:56.256Z,3.24
2023-01-06T00:54:51.877Z,3.30
2023-01-06T00:58:20.364Z,3.32
2023-01-06T01:01:34.211Z,3.24
2023-01-06T01:04:18.883Z,3.25
2023-01-06T01:07:24.749Z,3.28
2023-01-06T01:13:22.511Z,3.25
2023-01-06T01:16:09.422Z,3.24
2023-01-06T01:18:54.062Z,3.21
2023-01-06T01:21:33.954Z,3.22
2023-01-06T01:24:38.391Z,3.23
2023-01-06T01:27:14.928Z,3.23
2023-01-06T01:29:49.447Z,3.23
2023-01-06T01:32:31.416Z,3.22
2023-01-06T01:35:37.338Z,3.27
2023-01-06T01:38:29.944Z,3.28
2023-01-06T01:41:12.411Z,3.27
2023-01-06T01:51:13.621Z,3.27
2023-01-06T01:54:23.319Z,3.25
2023-01-06T01:57:25.174Z,3.28
2023-01-06T02:00:06.557Z,3.23
2023-01-06T02:03:39.977Z,3.28
2023-01-06T02:07:49.355Z,3.21
2023-01-06T02:11:12.407Z,3.27
2023-01-06T02:13:44.174Z,3.24
2023-01-06T02:17:02.147Z,3.34
2023-01-06T02:24:36.430Z,3.39
2023-01-06T02:28:18.280Z,3.46
2023-01-06T02:31:57.886Z,3.50
2023-01-06T02:35:39.306Z,3.45
2023-01-06T02:38:41.841Z,3.47
2023-01-06T02:43:07.369Z,3.50
2023-01-06T02:46:21.183Z,3.58
2023-01-06T03:01:53.326Z,3.52
2023-01-06T03:04:56.693Z,3.59
2023-01-06T03:07:44.797Z,3.61
2023-01-06T03:10:20.644Z,3.62
2023-01-06T03:13:12.914Z,3.61
2023-01-06T03:15:54.716Z,3.59
2023-01-06T03:18:38.054Z,3.59
2023-01-06T03:21:35.076Z,3.61
2023-01-06T03:24:11.674Z,3.63
2023-01-06T03:27:15.415Z,3.65
2023-01-06T03:34:38.741Z,3.70
2023-01-06T03:37:51.185Z,3.68
2023-01-06T03:40:48.403Z,3.73
2023-01-06T03:54:08.611Z,3.70
2023-01-06T03:57:44.991Z,3.68
2023-01-06T04:00:33.062Z,3.67
2023-01-06T04:03:22.814Z,3.71
2023-01-06T04:06:01.743Z,3.76
2023-01-06T04:08:54.195Z,3.78
2023-01-06T04:11:51.540Z,3.77
2023-01-06T04:14:38.887Z,3.76
2023-01-06T04:17:48.262Z,3.75
2023-01-06T04:21:03.777Z,3.74
2023-01-06T04:23:33.146Z,3.88
2023-01-06T04:26:03.574Z,4.03
2023-01-06T04:28:38.423Z,3.99
2023-01-06T04:31:05.908Z,4.00
2023-01-06T04:33:35.620Z,3.92
2023-01-06T04:36:05.470Z,3.89
2023-01-06T04:38:33.831Z,3.84
2023-01-06T04:41:03.708Z,3.87
2023-01-06T04:43:32.424Z,3.86
2023-01-06T04:46:03.796Z,3.89
2023-01-06T04:48:35.128Z,3.88
2023-01-06T04:51:11.371Z,3.87
2023-01-06T04:53:40.711Z,3.87
2023-01-06T04:56:34.013Z,3.89
2023-01-06T04:59:01.025Z,3.96
2023-01-06T05:01:30.106Z,3.93
2023-01-06T05:03:57.039Z,3.94
2023-01-06T05:06:23.950Z,3.87
2023-01-06T05:08:51.033Z,3.77
2023-01-06T05:11:22.544Z,3.90
2023-01-06T05:13:49.659Z,3.94
2023-01-06T05:16:32.357Z,3.95
2023-01-06T05:18:59.629Z,3.91
2023-01-06T05:21:28.944Z,3.93
2023-01-06T05:23:57.030Z,3.84
2023-01-06T05:26:26.212Z,3.91
2023-01-06T05:32:20.243Z,3.89
2023-01-06T05:38:58.291Z,3.81
2023-01-06T06:54:21.364Z,3.86
2023-01-06T08:06:46.968Z,3.98
2023-01-06T09:02:51.539Z,4.25
2023-01-06T09:05:19.652Z,4.28
2023-01-06T09:07:46.720Z,4.37
2023-01-06T09:10:23.090Z,4.37
2023-01-06T09:12:51.383Z,4.37
2023-01-06T09:15:18.439Z,4.45
2023-01-06T09:17:45.339Z,4.49
2023-01-06T09:20:12.105Z,4.54
2023-01-06T09:22:38.861Z,4.57
2023-01-06T09:25:07.711Z,4.55
2023-01-06T09:27:34.476Z,4.57
2023-01-06T09:30:01.360Z,4.59
2023-01-06T09:32:28.833Z,4.55
2023-01-06T09:34:55.804Z,4.66
2023-01-06T09:37:22.757Z,4.65
2023-01-06T09:39:49.691Z,4.64
2023-01-06T09:42:26.753Z,4.64
2023-01-06T09:44:57.097Z,4.68
2023-01-06T09:47:37.287Z,4.68
2023-01-06T09:50:31.746Z,4.73
2023-01-06T09:53:02.778Z,4.79
2023-01-06T09:55:42.740Z,4.82
2023-01-06T09:58:13.604Z,4.91
2023-01-06T10:00:44.360Z,4.97
2023-01-06T10:03:16.503Z,4.98
2023-01-06T10:05:49.414Z,5.06
2023-01-06T10:08:27.875Z,5.06
2023-01-06T10:11:16.108Z,5.06
2023-01-06T10:14:03.119Z,5.14
2023-01-06T10:16:51.833Z,5.18
2023-01-06T10:19:40.755Z,5.23
2023-01-06T10:22:26.611Z,5.28
2023-01-06T10:25:12.704Z,5.32
2023-01-06T10:27:53.927Z,5.35
2023-01-06T10:30:30.360Z,5.38
2023-01-06T10:33:00.260Z,5.41
2023-01-06T10:35:31.342Z,5.43
2023-01-06T10:37:59.364Z,5.44
2023-01-06T10:40:30.628Z,5.48
2023-01-06T10:43:33.846Z,5.50
2023-01-06T10:46:03.155Z,5.56
2023-01-06T10:52:13.308Z,5.60
2023-01-06T10:55:08.840Z,5.73
2023-01-06T11:02:27.260Z,5.77
2023-01-06T11:06:35.039Z,5.77
2023-01-06T11:09:50.178Z,5.86
2023-01-06T11:20:53.352Z,5.94
2023-01-06T11:30:23.925Z,6.09
2023-01-06T11:32:50.811Z,6.10
2023-01-06T11:35:21.262Z,6.13
2023-01-06T11:37:48.132Z,6.18
2023-01-06T11:40:30.830Z,6.57
2023-01-06T11:43:08.412Z,7.07
2023-01-06T11:45:37.473Z,6.98
2023-01-06T11:48:19.625Z,7.04
2023-01-06T11:50:55.052Z,7.30
2023-01-06T11:53:22.012Z,7.39
2023-01-06T11:56:17.762Z,7.39
2023-01-06T11:59:02.207Z,7.25
2023-01-06T12:01:42.574Z,7.11
2023-01-06T12:04:20.293Z,6.97
2023-01-06T12:06:52.117Z,6.91
2023-01-06T12:09:28.388Z,6.83
2023-01-06T12:12:00.850Z,6.89
2023-01-06T12:14:31.057Z,6.90
2023-01-06T12:17:19.458Z,6.90
2023-01-06T12:19:56.581Z,6.89
2023-01-06T12:22:43.927Z,6.85
2023-01-06T12:25:43.104Z,6.87
2023-01-06T12:28:14.767Z,6.88
2023-01-06T12:31:02.826Z,6.84
2023-01-06T12:33:44.246Z,6.89
2023-01-06T12:36:20.843Z,6.91
2023-01-06T12:39:32.457Z,7.03
2023-01-06T12:43:00.116Z,7.00
2023-01-06T12:46:43.318Z,7.04
2023-01-06T12:49:19.812Z,6.99
2023-01-06T12:52:23.074Z,7.08
2023-01-06T15:09:59.348Z,8.01
2023-01-06T15:12:31.088Z,8.10
2023-01-06T15:18:45.045Z,8.10
2023-01-06T15:21:21.766Z,8.08
2023-01-06T15:24:14.559Z,8.04
2023-01-06T15:30:52.710Z,7.87
2023-01-06T15:33:43.727Z,7.94
2023-01-06T15:36:23.194Z,7.99
2023-01-06T15:39:01.838Z,7.97
2023-01-06T15:41:32.654Z,7.88
2023-01-06T15:44:00.445Z,7.77
2023-01-06T15:46:37.942Z,7.71
2023-01-06T15:49:05.346Z,7.64
2023-01-06T15:51:43.498Z,7.64
2023-01-06T15:54:18.919Z,7.61
2023-01-06T15:56:53.433Z,7.59
2023-01-06T16:02:45.710Z,7.47
2023-01-06T16:06:35.530Z,7.47
2023-01-06T16:09:35.927Z,7.42
2023-01-06T16:12:17.475Z,7.43
2023-01-06T16:14:49.854Z,7.45
2023-01-06T16:22:24.620Z,7.37
2023-01-06T16:25:10.335Z,7.37
2023-01-06T16:28:19.173Z,7.33
2023-01-06T16:31:06.784Z,7.31
2023-01-06T16:33:39.826Z,7.30
2023-01-06T16:36:16.758Z,7.31
2023-01-06T16:38:44.191Z,7.31
2023-01-06T16:41:18.443Z,7.34
2023-01-06T16:43:46.109Z,7.31
2023-01-06T16:46:22.237Z,7.31
2023-01-06T16:48:51.015Z,7.29
2023-01-06T16:51:18.959Z,7.26
2023-01-06T16:53:46.540Z,7.24
2023-01-06T16:56:19.810Z,7.24
2023-01-06T16:58:46.627Z,7.27
2023-01-06T17:01:21.604Z,7.22
2023-01-06T17:03:54.309Z,7.23
2023-01-06T17:06:22.293Z,7.24
2023-01-06T17:08:49.482Z,7.22
2023-01-06T17:11:18.871Z,7.24
2023-01-06T17:13:53.586Z,7.25
2023-01-06T17:16:27.070Z,7.28
2023-01-06T17:18:59.828Z,7.28
2023-01-06T17:21:34.699Z,7.23
2023-01-06T17:24:16.882Z,7.25
2023-01-06T17:26:50.031Z,7.27
2023-01-06T17:29:18.644Z,7.28
2023-01-06T17:31:47.173Z,7.28
2023-01-06T17:34:29.583Z,7.27
2023-01-06T17:36:56.382Z,7.24
2023-01-06T17:39:26.847Z,7.21
2023-01-06T17:42:07.404Z,7.18
2023-01-06T17:44:37.190Z,7.19
2023-01-06T17:47:16.043Z,7.18
2023-01-06T17:49:51.727Z,7.19
2023-01-06T17:52:39.298Z,7.19
2023-01-06T17:55:27.581Z,7.15
2023-01-06T17:57:58.609Z,7.14
2023-01-06T18:00:31.424Z,7.12
2023-01-06T18:03:04.438Z,7.08
2023-01-06T18:05:32.730Z,7.04
2023-01-06T18:08:05.317Z,7.04
2023-01-06T18:10:34.236Z,7.04
2023-01-06T18:13:11.377Z,6.99
2023-01-06T18:15:38.747Z,6.98
2023-01-06T18:18:28.306Z,6.94
2023-01-06T18:21:20.041Z,6.94
2023-01-06T18:23:51.439Z,6.92
2023-01-06T18:26:27.982Z,6.89
2023-01-06T18:29:02.183Z,6.89
2023-01-06T18:31:41.639Z,6.87
2023-01-06T18:34:40.255Z,6.84
2023-01-06T18:37:07.530Z,6.83
2023-01-06T18:39:44.109Z,6.85
2023-01-06T18:42:25.009Z,6.85
2023-01-06T18:45:00.611Z,6.82
2023-01-06T18:47:29.541Z,6.81
2023-01-06T18:50:01.669Z,6.82
2023-01-06T18:52:39.188Z,6.77
2023-01-06T18:55:17.711Z,6.77
2023-01-06T18:57:46.153Z,6.78
2023-01-06T19:00:36.502Z,6.76
2023-01-06T19:03:30.221Z,6.78
2023-01-06T19:06:09.491Z,6.80
2023-01-06T19:08:39.228Z,6.84
2023-01-06T19:11:17.318Z,6.76
2023-01-06T19:13:46.491Z,6.75
2023-01-06T19:16:52.029Z,6.71
2023-01-06T19:19:43.859Z,6.74
2023-01-06T19:22:20.012Z,6.67
2023-01-06T19:25:12.345Z,6.67
2023-01-06T19:27:48.253Z,6.64
2023-01-06T19:30:37.180Z,6.67
2023-01-06T19:33:16.678Z,6.65
2023-01-06T19:35:44.666Z,6.65
2023-01-06T19:38:34.017Z,6.61
2023-01-06T19:41:02.909Z,6.62
2023-01-06T19:43:35.072Z,6.63
2023-01-06T19:46:04.804Z,6.61
2023-01-06T19:48:38.209Z,6.62
2023-01-06T19:51:30.068Z,6.61
2023-01-06T19:54:10.099Z,6.57
2023-01-06T19:56:39.444Z,6.57
2023-01-06T19:59:15.329Z,6.58
2023-01-06T20:01:42.147Z,6.58
2023-01-06T20:04:26.804Z,6.57
2023-01-06T20:06:53.912Z,6.58
2023-01-06T20:09:23.702Z,6.55
2023-01-06T20:11:51.461Z,6.55
2023-01-06T20:14:19.212Z,6.52
2023-01-06T20:22:59.581Z,6.44
2023-01-06T21:51:31.087Z,6.30
2023-01-06T21:56:04.180Z,6.30
2023-01-06T21:59:17.497Z,6.27
2023-01-06T22:02:50.789Z,6.28
2023-01-06T22:13:48.514Z,6.22
2023-01-06T22:16:45.806Z,6.26
2023-01-06T22:19:39.799Z,6.27
2023-01-06T22:22:27.921Z,6.31
2023-01-06T22:25:19.893Z,6.36
2023-01-06T22:28:07.926Z,6.33
2023-01-06T22:30:48.646Z,6.34
2023-01-06T22:33:28.191Z,6.36
2023-01-06T22:39:43.853Z,6.30
2023-01-06T22:42:26.227Z,6.31
2023-01-06T22:45:06.673Z,6.31
2023-01-06T22:47:42.215Z,6.27
2023-01-06T22:50:16.809Z,6.25
2023-01-06T22:52:50.604Z,6.26
2023-01-06T22:55:17.972Z,6.25
2023-01-06T22:58:04.335Z,6.27
2023-01-06T23:00:36.722Z,6.23
2023-01-06T23:03:04.070Z,6.30
2023-01-06T23:05:34.158Z,6.27
2023-01-06T23:08:01.108Z,6.26
2023-01-06T23:10:28.278Z,6.27
2023-01-06T23:13:04.694Z,6.25
2023-01-06T23:16:31.741Z,6.22
2023-01-06T23:19:26.986Z,6.18
2023-01-06T23:22:07.637Z,6.19
2023-01-06T23:24:38.467Z,6.25
2023-01-06T23:27:10.991Z,6.23
2023-01-06T23:29:38.086Z,6.28
2023-01-06T23:32:05.553Z,6.27
2023-01-06T23:34:32.616Z,6.31
2023-01-06T23:37:17.071Z,6.33
2023-01-06T23:40:10.387Z,6.39
2023-01-06T23:43:14.228Z,6.36
2023-01-06T23:46:21.532Z,6.35
2023-01-06T23:48:55.371Z,6.41
2023-01-06T23:51:27.140Z,6.37
2023-01-06T23:54:09.326Z,6.38
2023-01-06T23:56:37.667Z,6.43
2023-01-06T23:59:06.187Z,6.38
